Terminal Aerodrome Forecast
Issued by NWS

Home | Current Version | Previous Version | Text Only | Print | Product List | Glossary On
Versions: 1 2 3 4 5 6 7 8 9 10 11 12 13 14
000
FTUS41 KPHI 052322
TAFPNE
TAF
KPNE 052322Z 0600/0624 29006KT P6SM SCT100
     FM060300 VRB03KT P6SM SCT050 BKN100
     FM061000 04008KT P6SM SCT025 BKN050
     FM061600 07010KT P6SM BKN050=

USA.gov is the U.S. government's official web portal to all federal, state and local government web resources and services.